createdAt,value
2023-07-09T00:01:51.033Z,87.40
2023-07-09T00:04:17.999Z,87.40
2023-07-09T00:06:44.672Z,87.50
2023-07-09T00:09:21.499Z,87.70
2023-07-09T00:11:48.516Z,89.00
2023-07-09T00:14:16.210Z,89.80
2023-07-09T00:16:44.338Z,89.70
2023-07-09T00:19:20.363Z,89.50
2023-07-09T00:21:54.096Z,90.10
2023-07-09T00:24:21.193Z,90.40
2023-07-09T00:26:50.815Z,90.60
2023-07-09T00:29:18.086Z,90.60
2023-07-09T00:31:44.846Z,91.00
2023-07-09T00:34:15.246Z,91.00
2023-07-09T00:36:45.194Z,91.10
2023-07-09T00:39:19.566Z,90.90
2023-07-09T00:41:48.183Z,91.10
2023-07-09T00:44:25.756Z,91.00
2023-07-09T00:46:52.309Z,91.10
2023-07-09T00:49:30.632Z,90.90
2023-07-09T00:52:02.463Z,91.10
2023-07-09T00:54:48.016Z,90.90
2023-07-09T00:57:19.003Z,91.20
2023-07-09T00:59:49.204Z,91.20
2023-07-09T01:02:16.140Z,91.00
2023-07-09T01:04:43.009Z,90.70
2023-07-09T01:07:09.717Z,90.50
2023-07-09T01:09:42.029Z,90.50
2023-07-09T01:12:10.064Z,90.60
2023-07-09T01:14:37.196Z,90.60
2023-07-09T01:17:05.913Z,90.70
2023-07-09T01:19:44.109Z,91.00
2023-07-09T01:22:12.895Z,91.20
2023-07-09T01:24:48.445Z,91.40
2023-07-09T01:27:15.132Z,91.30
2023-07-09T01:29:44.161Z,91.30
2023-07-09T01:32:14.698Z,91.30
2023-07-09T01:34:42.223Z,91.10
2023-07-09T01:37:09.233Z,91.30
2023-07-09T01:39:37.127Z,91.10
2023-07-09T01:42:03.888Z,91.30
2023-07-09T01:44:30.867Z,91.50
2023-07-09T01:46:57.479Z,91.30
2023-07-09T01:49:24.136Z,91.20
2023-07-09T01:51:51.461Z,91.50
2023-07-09T01:54:18.101Z,91.90
2023-07-09T01:56:44.879Z,91.50
2023-07-09T01:59:12.159Z,91.50
2023-07-09T02:01:39.547Z,91.20
2023-07-09T02:04:06.336Z,91.50
2023-07-09T02:06:33.247Z,91.40
2023-07-09T02:09:00.153Z,91.80
2023-07-09T02:11:26.783Z,91.80
2023-07-09T02:13:53.457Z,91.90
2023-07-09T02:16:20.214Z,91.70
2023-07-09T02:18:47.297Z,91.60
2023-07-09T02:21:13.919Z,91.50
2023-07-09T02:23:40.571Z,91.60
2023-07-09T02:26:07.449Z,91.50
2023-07-09T02:28:34.243Z,91.80
2023-07-09T02:31:00.854Z,92.00
2023-07-09T02:33:27.826Z,92.10
2023-07-09T02:35:54.489Z,91.90
2023-07-09T02:38:21.068Z,92.10
2023-07-09T02:40:47.640Z,91.80
2023-07-09T02:43:14.288Z,92.50
2023-07-09T02:45:40.922Z,92.50
2023-07-09T02:48:07.567Z,92.80
2023-07-09T02:50:34.168Z,93.00
2023-07-09T02:53:00.847Z,92.70
2023-07-09T02:55:27.413Z,92.90
2023-07-09T02:57:54.114Z,92.70
2023-07-09T03:00:20.764Z,93.20
2023-07-09T03:02:47.451Z,93.40
2023-07-09T03:05:14.116Z,93.50
2023-07-09T03:07:40.769Z,93.80
2023-07-09T03:10:07.601Z,94.00
2023-07-09T03:12:34.504Z,93.40
2023-07-09T03:15:01.222Z,93.50
2023-07-09T03:17:27.830Z,93.30
2023-07-09T03:19:55.442Z,93.90
2023-07-09T03:22:22.165Z,93.90
2023-07-09T03:24:48.734Z,94.30
2023-07-09T03:27:15.405Z,94.40
2023-07-09T03:29:42.045Z,94.60
2023-07-09T03:32:08.940Z,94.60
2023-07-09T03:34:36.066Z,94.80
2023-07-09T03:37:02.682Z,94.20
2023-07-09T03:39:29.343Z,94.10
2023-07-09T03:41:55.925Z,95.10
2023-07-09T03:44:22.599Z,94.90
2023-07-09T03:46:49.299Z,95.20
2023-07-09T03:49:15.903Z,94.60
2023-07-09T03:51:42.627Z,95.00
2023-07-09T03:54:09.261Z,95.00
2023-07-09T03:56:35.926Z,95.20
2023-07-09T03:59:02.546Z,95.30
2023-07-09T04:01:29.228Z,95.00
2023-07-09T04:03:55.830Z,95.90
2023-07-09T04:06:22.567Z,96.10
2023-07-09T04:08:49.132Z,96.10
2023-07-09T04:11:15.721Z,95.90
2023-07-09T04:13:42.305Z,96.10
2023-07-09T04:16:09.250Z,96.90
2023-07-09T04:18:37.256Z,96.50
2023-07-09T04:21:04.529Z,96.40
2023-07-09T04:23:31.142Z,96.60
2023-07-09T04:25:58.675Z,97.10
2023-07-09T04:28:25.463Z,97.10
2023-07-09T04:30:52.697Z,96.80
2023-07-09T04:33:20.203Z,97.40
2023-07-09T04:35:47.869Z,96.90
2023-07-09T04:38:14.924Z,97.30
2023-07-09T04:40:41.843Z,97.50
2023-07-09T04:43:08.775Z,97.50
2023-07-09T04:45:35.786Z,97.60
2023-07-09T04:48:02.641Z,98.10
2023-07-09T04:50:29.243Z,98.50
2023-07-09T04:52:55.851Z,98.50
2023-07-09T04:55:22.504Z,99.00
2023-07-09T04:57:49.121Z,99.50
2023-07-09T05:00:15.867Z,99.90
2023-07-09T05:02:42.561Z,99.90
2023-07-09T05:05:09.351Z,99.90
2023-07-09T05:07:35.895Z,99.90
2023-07-09T05:10:02.626Z,99.90
2023-07-09T05:12:29.367Z,99.90
2023-07-09T05:14:57.480Z,99.90
2023-07-09T05:17:24.762Z,99.90
2023-07-09T05:19:52.009Z,99.90
2023-07-09T05:22:18.591Z,99.90
2023-07-09T05:24:45.333Z,99.90
2023-07-09T05:27:11.953Z,99.90
2023-07-09T05:29:38.496Z,99.90
2023-07-09T05:32:05.341Z,99.90
2023-07-09T05:34:31.982Z,99.90
2023-07-09T05:37:00.407Z,99.90
2023-07-09T05:39:28.294Z,99.90
2023-07-09T05:41:54.990Z,99.90
2023-07-09T05:44:21.583Z,99.90
2023-07-09T05:46:48.263Z,99.90
2023-07-09T05:49:14.978Z,99.90
2023-07-09T05:51:41.653Z,99.90
2023-07-09T05:54:08.376Z,99.90
2023-07-09T05:56:34.967Z,99.90
2023-07-09T05:59:02.768Z,99.90
2023-07-09T06:01:29.426Z,99.90
2023-07-09T06:03:57.736Z,99.90
2023-07-09T06:06:24.934Z,99.90
2023-07-09T06:08:51.516Z,99.90
2023-07-09T06:11:19.077Z,99.90
2023-07-09T06:13:47.910Z,99.90
2023-07-09T06:16:14.813Z,99.90
2023-07-09T06:18:41.611Z,99.90
2023-07-09T06:21:10.329Z,99.90
2023-07-09T06:23:37.094Z,99.90
2023-07-09T06:26:04.148Z,99.90
2023-07-09T06:28:31.586Z,99.90
2023-07-09T06:30:58.649Z,99.90
2023-07-09T06:33:26.557Z,99.90
2023-07-09T06:35:55.346Z,99.90
2023-07-09T06:38:22.201Z,99.90
2023-07-09T06:40:49.245Z,99.90
2023-07-09T06:43:15.915Z,99.90
2023-07-09T06:45:52.643Z,99.90
2023-07-09T06:48:19.233Z,99.90
2023-07-09T06:50:45.832Z,99.90
2023-07-09T06:53:12.696Z,99.90
2023-07-09T06:55:39.605Z,99.90
2023-07-09T06:58:06.586Z,99.60
2023-07-09T07:00:34.519Z,99.90
2023-07-09T07:03:01.260Z,99.90
2023-07-09T07:05:28.012Z,99.70
2023-07-09T07:07:54.651Z,99.90
2023-07-09T07:10:21.253Z,99.90
2023-07-09T07:12:48.740Z,99.70
2023-07-09T07:15:16.757Z,99.30
2023-07-09T07:17:43.833Z,99.30
2023-07-09T07:20:11.419Z,99.60
2023-07-09T07:22:38.357Z,98.70
2023-07-09T07:25:08.810Z,97.40
2023-07-09T07:28:17.597Z,98.20
2023-07-09T07:30:44.948Z,97.70
2023-07-09T07:33:17.242Z,97.40
2023-07-09T07:36:06.315Z,97.20
2023-07-09T07:38:30.715Z,97.20
2023-07-09T07:40:57.361Z,97.50
2023-07-09T07:43:24.085Z,96.60
2023-07-09T07:45:50.830Z,96.20
2023-07-09T07:48:17.653Z,96.30
2023-07-09T07:50:47.161Z,95.70
2023-07-09T07:53:14.804Z,94.90
2023-07-09T07:55:42.003Z,94.80
2023-07-09T07:58:13.874Z,95.00
2023-07-09T08:00:41.572Z,93.70
2023-07-09T08:03:08.432Z,94.00
2023-07-09T08:05:35.205Z,94.70
2023-07-09T08:08:02.006Z,94.50
2023-07-09T08:10:28.706Z,94.20
2023-07-09T08:12:57.821Z,94.20
2023-07-09T08:15:28.710Z,94.00
2023-07-09T08:17:55.939Z,93.90
2023-07-09T08:20:22.727Z,93.00
2023-07-09T08:22:49.378Z,93.00
2023-07-09T08:25:16.111Z,93.20
2023-07-09T08:27:42.788Z,92.60
2023-07-09T08:30:10.388Z,92.50
2023-07-09T08:32:37.155Z,92.30
2023-07-09T08:37:33.786Z,92.70
2023-07-09T08:40:00.463Z,92.50
2023-07-09T08:42:59.853Z,92.50
2023-07-09T08:45:44.182Z,92.60
2023-07-09T08:48:23.903Z,92.30
2023-07-09T08:50:55.581Z,90.70
2023-07-09T08:53:32.215Z,91.70
2023-07-09T08:55:59.961Z,91.60
2023-07-09T08:58:30.778Z,91.50
2023-07-09T09:00:59.758Z,90.60
2023-07-09T09:03:52.446Z,90.80
2023-07-09T09:06:23.926Z,90.60
2023-07-09T09:09:00.672Z,91.00
2023-07-09T09:11:38.914Z,90.90
2023-07-09T09:14:18.188Z,90.50
2023-07-09T09:16:46.982Z,90.20
2023-07-09T09:19:39.064Z,89.40
2023-07-09T09:22:12.589Z,89.70
2023-07-09T09:25:02.353Z,90.10
2023-07-09T09:27:29.016Z,88.40
2023-07-09T09:29:55.661Z,89.30
2023-07-09T09:32:29.860Z,88.70
2023-07-09T09:34:57.136Z,87.40
2023-07-09T09:37:33.317Z,87.40
2023-07-09T09:42:30.455Z,85.60
2023-07-09T09:44:57.202Z,85.70
2023-07-09T09:47:27.727Z,84.90
2023-07-09T09:49:54.975Z,85.60
2023-07-09T09:52:31.555Z,82.70
2023-07-09T09:55:09.884Z,82.20
2023-07-09T09:57:36.600Z,82.70
2023-07-09T10:00:03.733Z,81.60
2023-07-09T10:02:32.549Z,81.60
2023-07-09T10:04:59.262Z,81.40
2023-07-09T10:07:35.436Z,81.10
2023-07-09T10:10:05.215Z,81.70
2023-07-09T10:12:36.521Z,80.30
2023-07-09T10:15:22.830Z,81.10
2023-07-09T10:18:29.915Z,80.00
2023-07-09T10:21:11.692Z,80.40
2023-07-09T10:24:13.287Z,79.10
2023-07-09T10:26:54.614Z,78.30
2023-07-09T10:29:40.834Z,78.80
2023-07-09T10:32:25.068Z,77.40
2023-07-09T10:34:51.710Z,78.70
2023-07-09T10:37:47.123Z,77.50
2023-07-09T10:40:18.314Z,79.00
2023-07-09T10:42:49.307Z,79.10
2023-07-09T10:45:21.658Z,80.10
2023-07-09T10:47:51.135Z,78.30
2023-07-09T10:50:49.548Z,78.60
2023-07-09T10:53:36.078Z,77.10
2023-07-09T10:56:09.374Z,75.30
2023-07-09T10:58:42.790Z,75.40
2023-07-09T11:01:14.435Z,75.80
2023-07-09T11:03:50.113Z,76.10
2023-07-09T11:06:45.214Z,76.20
2023-07-09T11:09:25.463Z,75.80
2023-07-09T11:11:55.978Z,74.60
2023-07-09T11:14:39.308Z,73.40
2023-07-09T11:17:12.921Z,73.90
2023-07-09T11:19:45.817Z,74.30
2023-07-09T11:22:21.485Z,74.00
2023-07-09T11:25:06.206Z,73.50
2023-07-09T11:27:33.534Z,74.00
2023-07-09T11:30:03.936Z,73.60
2023-07-09T11:32:31.032Z,73.50
2023-07-09T11:35:09.737Z,73.90
2023-07-09T11:37:47.312Z,72.90
2023-07-09T11:40:15.348Z,73.60
2023-07-09T11:42:57.055Z,72.30
2023-07-09T11:45:33.933Z,71.90
2023-07-09T11:48:25.510Z,71.70
2023-07-09T11:50:54.082Z,70.10
2023-07-09T11:53:47.350Z,69.60
2023-07-09T11:56:16.679Z,69.90
2023-07-09T11:58:50.847Z,70.60
2023-07-09T12:01:22.146Z,71.50
2023-07-09T12:03:50.122Z,68.50
2023-07-09T12:06:16.838Z,68.60
2023-07-09T12:08:46.222Z,68.20
2023-07-09T12:11:33.193Z,69.40
2023-07-09T12:14:03.958Z,68.70
2023-07-09T12:16:36.004Z,68.10
2023-07-09T12:19:02.743Z,68.90
2023-07-09T12:21:31.264Z,68.10
2023-07-09T12:23:58.107Z,67.90
2023-07-09T12:26:24.868Z,67.00
2023-07-09T12:28:57.965Z,66.20
2023-07-09T12:31:29.198Z,66.00
2023-07-09T12:33:58.669Z,68.00
2023-07-09T12:36:27.182Z,67.40
2023-07-09T12:38:58.132Z,66.90
2023-07-09T12:41:41.354Z,66.00
2023-07-09T12:44:18.713Z,66.60
2023-07-09T12:46:46.940Z,67.40
2023-07-09T12:49:25.725Z,67.20
2023-07-09T12:51:54.924Z,66.60
2023-07-09T12:54:22.368Z,65.00
2023-07-09T12:56:53.114Z,66.40
2023-07-09T12:59:22.736Z,66.30
2023-07-09T13:01:52.270Z,64.70
2023-07-09T13:04:19.136Z,65.50
2023-07-09T13:06:47.035Z,66.60
2023-07-09T13:09:22.389Z,65.40
2023-07-09T13:11:49.899Z,64.80
2023-07-09T13:14:31.661Z,65.40
2023-07-09T13:17:06.481Z,63.80
2023-07-09T13:19:33.641Z,64.00
2023-07-09T13:22:00.649Z,64.70
2023-07-09T13:24:30.885Z,64.90
2023-07-09T13:27:00.591Z,65.60
2023-07-09T13:29:28.652Z,65.30
2023-07-09T13:31:56.364Z,64.70
2023-07-09T13:34:25.106Z,65.10
2023-07-09T13:36:54.638Z,63.40
2023-07-09T13:39:22.185Z,63.40
2023-07-09T13:41:50.785Z,64.10
2023-07-09T13:44:20.620Z,64.00
2023-07-09T13:46:47.790Z,65.20
2023-07-09T13:49:18.756Z,65.40
2023-07-09T13:51:47.715Z,65.00
2023-07-09T13:54:19.679Z,65.30
2023-07-09T13:56:46.994Z,66.00
2023-07-09T13:59:25.290Z,65.80
2023-07-09T14:01:55.581Z,65.10
2023-07-09T14:04:22.770Z,65.80
2023-07-09T14:06:49.432Z,66.40
2023-07-09T14:09:17.578Z,66.90
2023-07-09T14:11:50.982Z,66.80
2023-07-09T14:14:28.766Z,66.00
2023-07-09T14:16:55.513Z,64.90
2023-07-09T14:19:23.904Z,65.50
2023-07-09T14:21:52.401Z,65.70
2023-07-09T14:24:25.790Z,65.80
2023-07-09T14:26:54.261Z,65.90
2023-07-09T14:29:21.751Z,67.00
2023-07-09T14:31:49.164Z,68.30
2023-07-09T14:34:23.678Z,67.10
2023-07-09T14:36:52.084Z,67.10
2023-07-09T14:39:19.262Z,66.80
2023-07-09T14:41:46.999Z,66.50
2023-07-09T14:44:23.423Z,68.10
2023-07-09T14:46:51.513Z,66.20
2023-07-09T14:49:19.341Z,65.20
2023-07-09T14:51:47.385Z,65.40
2023-07-09T14:54:24.398Z,66.10
2023-07-09T14:56:53.552Z,66.10
2023-07-09T14:59:20.724Z,65.20
2023-07-09T15:01:48.112Z,65.50
2023-07-09T15:04:33.649Z,66.20
2023-07-09T15:07:00.990Z,66.70
2023-07-09T15:09:29.282Z,66.90
2023-07-09T15:11:58.393Z,67.70
2023-07-09T15:14:26.622Z,67.30
2023-07-09T15:16:56.487Z,67.90
2023-07-09T15:19:24.847Z,67.80
2023-07-09T15:21:52.098Z,68.50
2023-07-09T15:24:25.639Z,68.00
2023-07-09T15:26:54.244Z,68.10
2023-07-09T15:29:22.554Z,68.50
2023-07-09T15:31:49.574Z,69.60
2023-07-09T15:34:16.587Z,68.80
2023-07-09T15:36:49.852Z,68.90
2023-07-09T15:39:17.612Z,69.30
2023-07-09T15:41:44.489Z,69.90
2023-07-09T15:44:20.488Z,71.20
2023-07-09T15:46:53.333Z,70.60
2023-07-09T15:49:20.139Z,70.40
2023-07-09T15:51:47.138Z,70.10
2023-07-09T15:54:19.146Z,70.50
2023-07-09T15:56:47.744Z,69.70
2023-07-09T15:59:27.224Z,70.00
2023-07-09T16:01:54.157Z,69.50
2023-07-09T16:04:21.591Z,69.70
2023-07-09T16:06:48.620Z,70.10
2023-07-09T16:09:15.357Z,70.20
2023-07-09T16:11:45.870Z,70.60
2023-07-09T16:14:33.748Z,69.80
2023-07-09T16:17:02.440Z,70.00
2023-07-09T16:19:32.955Z,69.90
2023-07-09T16:22:05.654Z,70.50
2023-07-09T16:24:34.745Z,69.70
2023-07-09T16:27:03.147Z,70.00
2023-07-09T16:29:32.596Z,70.30
2023-07-09T16:32:00.546Z,71.20
2023-07-09T16:34:29.580Z,70.00
2023-07-09T16:36:56.877Z,69.80
2023-07-09T16:39:30.216Z,70.50
2023-07-09T16:41:58.388Z,69.20
2023-07-09T16:44:25.520Z,69.00
2023-07-09T16:46:54.177Z,70.80
2023-07-09T16:49:24.233Z,71.10
2023-07-09T16:51:50.899Z,71.70
2023-07-09T16:54:17.624Z,72.50
2023-07-09T16:56:44.352Z,73.60
2023-07-09T16:59:11.467Z,74.40
2023-07-09T17:01:38.449Z,75.00
2023-07-09T17:04:21.177Z,75.40
2023-07-09T17:06:47.910Z,75.70
2023-07-09T17:09:14.756Z,76.00
2023-07-09T17:11:41.499Z,76.30
2023-07-09T17:14:14.991Z,75.80
2023-07-09T17:16:42.156Z,75.90
2023-07-09T17:19:11.439Z,75.80
2023-07-09T17:21:39.062Z,75.70
2023-07-09T17:24:21.715Z,75.60
2023-07-09T17:26:50.507Z,75.80
2023-07-09T17:29:18.205Z,74.90
2023-07-09T17:31:46.713Z,74.50
2023-07-09T17:34:14.322Z,74.70
2023-07-09T17:36:42.105Z,75.30
2023-07-09T17:39:20.592Z,75.00
2023-07-09T17:41:48.728Z,75.00
2023-07-09T17:44:20.824Z,73.90
2023-07-09T17:46:49.665Z,74.00
2023-07-09T17:49:20.809Z,75.10
2023-07-09T17:51:47.495Z,74.30
2023-07-09T17:54:22.758Z,74.20
2023-07-09T17:56:52.161Z,74.60
2023-07-09T17:59:27.600Z,74.40
2023-07-09T18:02:09.316Z,75.10
2023-07-09T18:04:36.255Z,75.80
2023-07-09T18:07:17.888Z,76.00
2023-07-09T18:09:44.636Z,76.00
2023-07-09T18:12:14.406Z,75.60
2023-07-09T18:14:47.833Z,76.30
2023-07-09T18:17:23.330Z,76.30
2023-07-09T18:19:51.127Z,76.40
2023-07-09T18:22:20.228Z,77.00
2023-07-09T18:24:47.060Z,77.50
2023-07-09T18:27:20.833Z,78.00
2023-07-09T18:29:52.392Z,78.20
2023-07-09T18:32:24.343Z,79.10
2023-07-09T18:34:56.670Z,79.40
2023-07-09T18:37:23.799Z,80.00
2023-07-09T18:39:51.379Z,78.40
2023-07-09T18:42:20.344Z,79.30
2023-07-09T18:44:47.725Z,80.20
2023-07-09T18:47:19.878Z,80.00
2023-07-09T18:49:47.334Z,80.00
2023-07-09T18:52:16.828Z,81.00
2023-07-09T18:54:48.568Z,81.30
2023-07-09T18:57:15.832Z,81.00
2023-07-09T18:59:42.564Z,81.60
2023-07-09T19:02:23.878Z,82.70
2023-07-09T19:04:53.388Z,82.40
2023-07-09T19:07:21.849Z,82.30
2023-07-09T19:09:51.398Z,83.00
2023-07-09T19:12:18.137Z,84.20
2023-07-09T19:14:44.806Z,84.50
2023-07-09T19:17:17.893Z,85.00
2023-07-09T19:19:47.194Z,86.70
2023-07-09T19:22:14.295Z,86.10
2023-07-09T19:24:43.444Z,86.00
2023-07-09T19:27:10.041Z,85.60
2023-07-09T19:29:36.837Z,87.40
2023-07-09T19:32:08.438Z,86.40
2023-07-09T19:34:39.316Z,86.40
2023-07-09T19:37:20.804Z,87.00
2023-07-09T19:39:49.433Z,86.20
2023-07-09T19:42:17.471Z,86.70
2023-07-09T19:44:44.198Z,85.10
2023-07-09T19:47:22.932Z,85.40
2023-07-09T19:49:53.275Z,86.60
2023-07-09T19:52:20.317Z,86.80
2023-07-09T19:54:47.533Z,87.20
2023-07-09T19:57:15.544Z,86.70
2023-07-09T19:59:42.992Z,85.90
2023-07-09T20:02:30.467Z,86.60
2023-07-09T20:04:57.252Z,86.70
2023-07-09T20:07:23.891Z,87.40
2023-07-09T20:09:50.578Z,87.60
2023-07-09T20:12:23.320Z,87.70
2023-07-09T20:14:52.502Z,88.20
2023-07-09T20:17:19.058Z,87.80
2023-07-09T20:19:45.800Z,88.00
2023-07-09T20:22:14.268Z,88.30
2023-07-09T20:24:40.884Z,90.00
2023-07-09T20:27:16.468Z,89.60
2023-07-09T20:29:43.886Z,89.70
2023-07-09T20:32:21.582Z,89.20
2023-07-09T20:34:53.978Z,89.80
2023-07-09T20:37:21.375Z,90.10
2023-07-09T20:39:48.177Z,89.80
2023-07-09T20:42:15.113Z,90.00
2023-07-09T20:44:43.440Z,90.50
2023-07-09T20:47:18.877Z,90.80
2023-07-09T20:49:46.590Z,90.90
2023-07-09T20:52:13.857Z,91.30
2023-07-09T20:54:41.817Z,91.00
2023-07-09T20:57:18.915Z,90.90
2023-07-09T20:59:47.023Z,90.90
2023-07-09T21:02:25.346Z,91.10
2023-07-09T21:04:55.216Z,91.10
2023-07-09T21:07:25.547Z,90.70
2023-07-09T21:09:52.409Z,90.80
2023-07-09T21:12:19.830Z,90.90
2023-07-09T21:14:47.117Z,91.00
2023-07-09T21:17:19.795Z,91.10
2023-07-09T21:19:46.541Z,90.80
2023-07-09T21:22:18.584Z,90.60
2023-07-09T21:24:49.388Z,90.60
2023-07-09T21:27:16.155Z,90.60
2023-07-09T21:29:43.018Z,90.40
2023-07-09T21:32:23.804Z,90.80
2023-07-09T21:34:50.961Z,91.20
2023-07-09T21:37:21.351Z,92.00
2023-07-09T21:39:48.721Z,92.20
2023-07-09T21:42:15.970Z,92.90
2023-07-09T21:44:43.420Z,92.20
2023-07-09T21:47:18.316Z,92.50
2023-07-09T21:49:45.647Z,92.00
2023-07-09T21:52:21.785Z,91.80
2023-07-09T21:57:21.682Z,92.00
2023-07-09T21:59:48.452Z,92.40
2023-07-09T22:02:21.698Z,92.30
2023-07-09T22:04:51.484Z,92.40
2023-07-09T22:07:23.098Z,92.40
2023-07-09T22:09:56.532Z,92.20
2023-07-09T22:12:24.181Z,92.50
2023-07-09T22:14:54.110Z,90.50
2023-07-09T22:17:29.277Z,90.20
2023-07-09T22:20:00.989Z,89.70
2023-07-09T22:22:29.269Z,90.00
2023-07-09T22:24:56.989Z,89.60
2023-07-09T22:27:24.243Z,90.00
2023-07-09T22:29:51.732Z,90.00
2023-07-09T22:32:27.461Z,90.50
2023-07-09T22:34:57.098Z,91.70
2023-07-09T22:37:23.911Z,92.70
2023-07-09T22:39:50.667Z,92.60
2023-07-09T22:42:17.878Z,92.10
2023-07-09T22:44:44.570Z,91.90
2023-07-09T22:47:18.306Z,92.10
2023-07-09T22:49:45.244Z,91.90
2023-07-09T22:52:13.259Z,92.00
2023-07-09T22:54:40.141Z,92.00
2023-07-09T22:57:06.843Z,91.90
2023-07-09T22:59:33.520Z,92.30
2023-07-09T23:02:00.149Z,92.70
2023-07-09T23:04:27.100Z,92.50
2023-07-09T23:06:53.905Z,92.70
2023-07-09T23:09:20.590Z,92.90
2023-07-09T23:11:47.310Z,92.90
2023-07-09T23:14:23.262Z,92.60
2023-07-09T23:16:50.316Z,92.80
2023-07-09T23:19:27.954Z,93.20
2023-07-09T23:21:55.264Z,93.00
2023-07-09T23:24:22.275Z,92.80
2023-07-09T23:26:51.988Z,92.30
2023-07-09T23:29:19.444Z,93.00
2023-07-09T23:31:48.751Z,93.40
2023-07-09T23:34:18.797Z,93.40
2023-07-09T23:36:45.521Z,93.70
2023-07-09T23:39:13.622Z,93.30
2023-07-09T23:41:43.834Z,92.90
2023-07-09T23:44:17.659Z,93.10
2023-07-09T23:46:44.899Z,93.20
2023-07-09T23:49:21.586Z,93.10
2023-07-09T23:51:48.297Z,92.80
2023-07-09T23:54:14.961Z,93.00
2023-07-09T23:56:42.595Z,93.00
2023-07-09T23:59:15.024Z,93.00
